Terminal Aerodrome Forecast
Issued by NWS

Home | Current Version | Previous Version | Text Only | Print | Product List | Glossary On
Versions: 1 2 3 4 5 6 7 8 9 10 11 12 13 14 15 16 17 18 19
538
FTUS41 KBTV 052320
TAFSLK
TAF
KSLK 052320Z 0600/0624 28005KT P6SM FEW250
     FM060600 24004KT P6SM BKN030
     FM061000 23008KT P6SM VCSH OVC025
     FM061600 23012G18KT P6SM VCSH OVC040
     FM061900 23013G21KT P6SM OVC040=

USA.gov is the U.S. government's official web portal to all federal, state and local government web resources and services.